createdAt,value
2023-03-07T00:03:21.377Z,0.96
2023-03-07T00:07:21.570Z,0.96
2023-03-07T00:11:21.804Z,0.99
2023-03-07T00:15:22.019Z,0.98
2023-03-07T00:19:22.198Z,0.97
2023-03-07T00:23:22.432Z,0.97
2023-03-07T00:27:22.364Z,0.96
2023-03-07T00:31:22.388Z,0.96
2023-03-07T00:35:22.309Z,0.95
2023-03-07T00:39:22.294Z,0.96
2023-03-07T00:43:22.208Z,0.95
2023-03-07T00:47:22.165Z,0.95
2023-03-07T00:51:22.138Z,0.94
2023-03-07T00:55:22.137Z,0.95
2023-03-07T00:59:22.148Z,0.92
2023-03-07T01:03:22.050Z,0.94
2023-03-07T01:07:21.998Z,0.94
2023-03-07T01:11:21.964Z,0.95
2023-03-07T01:15:21.922Z,0.94
2023-03-07T01:19:21.916Z,0.94
2023-03-07T01:23:21.866Z,0.93
2023-03-07T01:27:21.838Z,0.93
2023-03-07T01:31:21.910Z,0.91
2023-03-07T01:35:21.764Z,0.90
2023-03-07T01:39:21.708Z,0.91
2023-03-07T01:43:21.866Z,0.93
2023-03-07T01:47:21.796Z,0.91
2023-03-07T01:51:21.780Z,0.89
2023-03-07T01:55:21.770Z,0.91
2023-03-07T01:59:21.724Z,0.91
2023-03-07T02:03:21.731Z,0.91
2023-03-07T02:07:21.677Z,0.89
2023-03-07T02:11:21.703Z,0.90
2023-03-07T02:15:21.578Z,0.89
2023-03-07T02:19:21.545Z,0.89
2023-03-07T02:23:21.489Z,0.88
2023-03-07T02:27:21.500Z,0.88
2023-03-07T02:31:21.620Z,0.88
2023-03-07T02:35:21.652Z,0.89
2023-03-07T02:39:21.698Z,0.88
2023-03-07T02:43:21.818Z,0.89
2023-03-07T02:47:21.831Z,0.88
2023-03-07T02:51:21.806Z,0.87
2023-03-07T02:55:21.809Z,0.87
2023-03-07T02:59:21.808Z,0.87
2023-03-07T03:03:21.809Z,0.87
2023-03-07T03:07:21.781Z,0.85
2023-03-07T03:11:21.719Z,0.86
2023-03-07T03:15:21.719Z,0.89
2023-03-07T03:19:21.702Z,0.88
2023-03-07T03:23:21.665Z,0.85
2023-03-07T03:27:21.661Z,0.86
2023-03-07T03:31:21.686Z,0.88
2023-03-07T03:35:21.648Z,0.87
2023-03-07T03:39:21.694Z,0.88
2023-03-07T03:43:21.633Z,0.90
2023-03-07T03:47:21.639Z,0.90
2023-03-07T03:51:21.653Z,0.90
2023-03-07T03:55:21.699Z,0.92
2023-03-07T03:59:21.660Z,0.93
2023-03-07T04:03:21.627Z,0.94
2023-03-07T04:07:21.781Z,0.89
2023-03-07T04:11:21.677Z,0.91
2023-03-07T04:15:21.718Z,0.95
2023-03-07T04:19:22.178Z,0.93
2023-03-07T04:23:21.756Z,0.93
2023-03-07T04:27:21.782Z,0.93
2023-03-07T04:31:21.789Z,0.92
2023-03-07T04:35:21.795Z,0.92
2023-03-07T04:39:21.831Z,0.96
2023-03-07T04:43:21.844Z,0.96
2023-03-07T04:47:21.857Z,0.91
2023-03-07T04:51:21.925Z,0.92
2023-03-07T04:55:21.931Z,0.93
2023-03-07T04:59:21.974Z,0.92
2023-03-07T05:03:22.044Z,0.94
2023-03-07T05:07:21.990Z,0.92
2023-03-07T05:11:22.112Z,0.98
2023-03-07T05:15:22.113Z,0.97
2023-03-07T05:19:22.203Z,0.94
2023-03-07T05:23:22.299Z,0.91
2023-03-07T05:27:22.246Z,0.93
2023-03-07T05:31:22.395Z,0.87
2023-03-07T05:35:22.354Z,0.92
2023-03-07T05:39:22.383Z,0.95
2023-03-07T05:43:22.411Z,0.87
2023-03-07T05:47:22.421Z,0.91
2023-03-07T05:51:22.470Z,0.90
2023-03-07T05:55:22.603Z,0.88
2023-03-07T05:59:22.517Z,0.87
2023-03-07T06:03:22.647Z,0.88
2023-03-07T06:07:22.681Z,0.85
2023-03-07T06:11:22.737Z,0.86
2023-03-07T06:15:24.496Z,0.90
2023-03-07T06:19:22.823Z,0.85
2023-03-07T06:23:22.831Z,0.86
2023-03-07T06:27:22.971Z,0.90
2023-03-07T06:31:23.475Z,0.82
2023-03-07T06:35:23.551Z,0.61
2023-03-07T06:39:23.211Z,0.62
2023-03-07T06:43:23.501Z,0.54
2023-03-07T06:47:23.991Z,0.61
2023-03-07T06:51:24.004Z,0.69
2023-03-07T06:55:23.217Z,0.76
2023-03-07T06:59:23.189Z,0.80
2023-03-07T07:03:23.203Z,0.94
2023-03-07T07:07:23.169Z,1.05
2023-03-07T07:11:23.112Z,1.15
2023-03-07T07:15:23.034Z,1.21
2023-03-07T07:19:23.013Z,1.36
2023-03-07T07:23:22.987Z,1.46
2023-03-07T07:27:22.923Z,1.47
2023-03-07T07:31:23.019Z,1.77
2023-03-07T07:35:22.867Z,3.78
2023-03-07T07:39:23.048Z,2.46
2023-03-07T07:43:22.941Z,3.11
2023-03-07T07:47:23.591Z,4.39
2023-03-07T07:51:23.127Z,4.09
2023-03-07T07:55:23.270Z,4.49
2023-03-07T07:59:23.576Z,4.70
2023-03-07T08:03:23.304Z,4.13
2023-03-07T08:07:23.308Z,3.76
2023-03-07T08:11:22.843Z,3.32
2023-03-07T08:15:22.792Z,3.57
2023-03-07T08:19:24.850Z,2.83
2023-03-07T08:23:22.689Z,2.80
2023-03-07T08:27:22.674Z,2.60
2023-03-07T08:31:27.356Z,2.11
2023-03-07T08:35:24.797Z,0.94
2023-03-07T08:39:25.182Z,1.14
2023-03-07T08:43:23.150Z,1.16
2023-03-07T08:47:22.565Z,1.14
2023-03-07T08:51:22.487Z,1.21
2023-03-07T08:55:22.439Z,1.34
2023-03-07T08:59:22.353Z,1.37
2023-03-07T09:03:22.324Z,1.43
2023-03-07T09:07:22.338Z,1.73
2023-03-07T09:11:22.272Z,1.21
2023-03-07T09:15:22.225Z,1.58
2023-03-07T09:19:22.199Z,1.54
2023-03-07T09:23:22.219Z,1.64
2023-03-07T09:27:22.132Z,1.52
2023-03-07T09:31:22.190Z,0.59
2023-03-07T09:35:22.089Z,0.58
2023-03-07T09:39:22.180Z,0.49
2023-03-07T09:43:22.561Z,0.53
2023-03-07T09:47:22.258Z,0.79
2023-03-07T09:51:22.437Z,0.95
2023-03-07T09:55:22.443Z,1.43
2023-03-07T09:59:23.977Z,2.02
2023-03-07T10:03:23.102Z,2.05
2023-03-07T10:07:22.824Z,2.11
2023-03-07T10:11:23.069Z,2.21
2023-03-07T10:15:23.009Z,2.81
2023-03-07T10:19:23.617Z,3.04
2023-03-07T10:23:23.086Z,2.56
2023-03-07T10:27:23.068Z,3.26
2023-03-07T10:31:23.615Z,2.95
2023-03-07T10:35:23.552Z,3.10
2023-03-07T10:39:24.024Z,2.71
2023-03-07T10:43:24.039Z,2.72
2023-03-07T10:47:23.637Z,2.68
2023-03-07T10:51:23.676Z,2.64
2023-03-07T10:55:23.779Z,2.56
2023-03-07T10:59:23.636Z,2.47
2023-03-07T11:03:23.731Z,2.43
2023-03-07T11:07:23.729Z,2.34
2023-03-07T11:11:23.801Z,2.26
2023-03-07T11:15:23.893Z,2.26
2023-03-07T11:19:23.877Z,2.20
2023-03-07T11:23:23.918Z,2.13
2023-03-07T11:27:24.041Z,2.09
2023-03-07T11:31:24.006Z,2.07
2023-03-07T11:35:23.998Z,2.03
2023-03-07T11:39:24.026Z,1.98
2023-03-07T11:43:24.139Z,1.92
2023-03-07T11:47:24.093Z,1.86
2023-03-07T11:51:24.150Z,1.86
2023-03-07T11:55:24.558Z,1.80
2023-03-07T11:59:24.255Z,1.78
2023-03-07T12:03:24.336Z,1.75
2023-03-07T12:07:24.337Z,1.70
2023-03-07T12:11:24.444Z,1.68
2023-03-07T12:15:24.477Z,1.59
2023-03-07T12:19:24.577Z,1.54
2023-03-07T12:23:24.564Z,1.54
2023-03-07T12:27:26.688Z,1.50
2023-03-07T12:31:24.721Z,1.48
2023-03-07T12:35:24.786Z,1.43
2023-03-07T12:39:24.704Z,1.38
2023-03-07T12:43:24.772Z,1.32
2023-03-07T12:47:24.802Z,1.30
2023-03-07T12:51:26.675Z,1.23
2023-03-07T12:55:24.851Z,1.25
2023-03-07T12:59:24.882Z,1.24
2023-03-07T13:03:24.910Z,1.18
2023-03-07T13:07:25.137Z,0.97
2023-03-07T13:11:25.151Z,0.83
2023-03-07T13:15:25.291Z,0.69
2023-03-07T13:19:26.778Z,0.71
2023-03-07T13:23:25.637Z,0.83
2023-03-07T13:27:25.678Z,0.98
2023-03-07T13:31:26.599Z,0.98
2023-03-07T13:35:25.883Z,1.02
2023-03-07T13:39:25.964Z,1.07
2023-03-07T13:43:28.038Z,1.20
2023-03-07T13:47:26.116Z,1.20
2023-03-07T13:51:26.563Z,1.26
2023-03-07T13:55:26.248Z,1.25
2023-03-07T13:59:26.281Z,1.26
2023-03-07T14:03:27.737Z,1.19
2023-03-07T14:07:26.445Z,1.24
2023-03-07T14:11:26.552Z,1.32
2023-03-07T14:15:26.520Z,1.29
2023-03-07T14:19:26.520Z,1.28
2023-03-07T14:23:26.517Z,1.27
2023-03-07T14:27:26.519Z,1.30
2023-03-07T14:31:26.708Z,1.34
2023-03-07T14:35:26.695Z,1.35
2023-03-07T14:39:26.938Z,1.38
2023-03-07T14:43:27.128Z,1.37
2023-03-07T14:47:27.078Z,1.36
2023-03-07T14:51:27.031Z,1.33
2023-03-07T14:55:27.043Z,1.23
2023-03-07T14:59:29.427Z,1.20
2023-03-07T15:03:26.977Z,1.17
2023-03-07T15:07:27.008Z,1.16
2023-03-07T15:11:26.922Z,1.15
2023-03-07T15:15:26.840Z,1.11
2023-03-07T15:19:26.775Z,1.09
2023-03-07T15:23:26.813Z,1.06
2023-03-07T15:27:26.724Z,1.05
2023-03-07T15:31:26.760Z,1.03
2023-03-07T15:35:26.681Z,1.02
2023-03-07T15:39:27.081Z,0.96
2023-03-07T15:43:26.634Z,0.97
2023-03-07T15:47:26.570Z,0.96
2023-03-07T15:51:26.529Z,0.95
2023-03-07T15:55:26.513Z,0.94
2023-03-07T15:59:26.446Z,0.93
2023-03-07T16:03:26.563Z,0.91
2023-03-07T16:07:26.417Z,0.90
2023-03-07T16:11:26.470Z,0.89
2023-03-07T16:15:26.351Z,0.88
2023-03-07T16:19:26.295Z,0.87
2023-03-07T16:23:26.382Z,0.87
2023-03-07T16:27:26.250Z,0.87
2023-03-07T16:31:26.232Z,0.86
2023-03-07T16:35:26.183Z,0.87
2023-03-07T16:39:26.104Z,0.84
2023-03-07T16:43:26.225Z,0.85
2023-03-07T16:47:26.248Z,0.84
2023-03-07T16:51:26.300Z,0.84
2023-03-07T16:55:26.399Z,0.83
2023-03-07T16:59:26.514Z,0.82
2023-03-07T17:03:26.594Z,0.79
2023-03-07T17:07:26.688Z,0.80
2023-03-07T17:11:26.833Z,0.79
2023-03-07T17:15:26.887Z,0.77
2023-03-07T17:19:26.987Z,0.79
2023-03-07T17:23:27.106Z,0.77
2023-03-07T17:27:27.172Z,0.76
2023-03-07T17:31:27.368Z,0.77
2023-03-07T17:35:27.385Z,0.76
2023-03-07T17:39:27.519Z,0.75
2023-03-07T17:43:27.648Z,0.74
2023-03-07T17:47:27.884Z,0.75
2023-03-07T17:51:27.969Z,0.74
2023-03-07T17:55:28.142Z,0.73
2023-03-07T17:59:28.262Z,0.73
2023-03-07T18:03:28.483Z,0.75
2023-03-07T18:07:28.578Z,0.72
2023-03-07T18:11:28.763Z,0.72
2023-03-07T18:15:28.896Z,0.71
2023-03-07T18:19:29.062Z,0.74
2023-03-07T18:23:29.305Z,0.72
2023-03-07T18:27:29.725Z,0.74
2023-03-07T18:31:29.682Z,0.72
2023-03-07T18:35:29.862Z,0.75
2023-03-07T18:39:30.077Z,0.74
2023-03-07T18:43:30.234Z,0.73
2023-03-07T18:47:30.463Z,0.73
2023-03-07T18:51:30.712Z,0.72
2023-03-07T18:55:30.636Z,0.72
2023-03-07T18:59:30.613Z,0.71
2023-03-07T19:03:30.569Z,0.72
2023-03-07T19:07:30.575Z,0.73
2023-03-07T19:11:30.509Z,0.73
2023-03-07T19:15:30.469Z,0.72
2023-03-07T19:19:30.395Z,0.72
2023-03-07T19:23:30.410Z,0.72
2023-03-07T19:27:30.398Z,0.72
2023-03-07T19:31:30.486Z,0.71
2023-03-07T19:35:30.682Z,0.72
2023-03-07T19:39:30.585Z,0.73
2023-03-07T19:43:30.566Z,0.72
2023-03-07T19:47:30.575Z,0.73
2023-03-07T19:51:30.495Z,0.73
2023-03-07T19:55:30.493Z,0.73
2023-03-07T19:59:30.405Z,0.74
2023-03-07T20:03:30.372Z,0.74
2023-03-07T20:07:30.368Z,0.74
2023-03-07T20:11:30.280Z,0.73
2023-03-07T20:15:30.365Z,0.73
2023-03-07T20:19:30.233Z,0.75
2023-03-07T20:23:30.200Z,0.75
2023-03-07T20:27:30.193Z,0.75
2023-03-07T20:31:30.123Z,0.74
2023-03-07T20:35:30.091Z,0.75
2023-03-07T20:39:30.072Z,0.74
2023-03-07T20:43:30.026Z,0.76
2023-03-07T20:47:30.016Z,0.76
2023-03-07T20:51:30.061Z,0.77
2023-03-07T20:55:29.916Z,0.77
2023-03-07T20:59:29.897Z,0.76
2023-03-07T21:03:29.891Z,0.77
2023-03-07T21:07:29.858Z,0.78
2023-03-07T21:11:29.778Z,0.78
2023-03-07T21:15:29.772Z,0.78
2023-03-07T21:19:29.750Z,0.79
2023-03-07T21:23:29.670Z,0.78
2023-03-07T21:27:29.689Z,0.78
2023-03-07T21:31:29.653Z,0.78
2023-03-07T21:35:29.588Z,0.76
2023-03-07T21:39:29.592Z,0.76
2023-03-07T21:43:29.540Z,0.76
2023-03-07T21:47:29.430Z,0.76
2023-03-07T21:51:29.486Z,0.74
2023-03-07T21:55:29.511Z,0.74
2023-03-07T21:59:29.586Z,0.74
2023-03-07T22:03:29.746Z,0.75
2023-03-07T22:07:29.806Z,0.74
2023-03-07T22:11:29.874Z,0.74
2023-03-07T22:15:30.013Z,0.73
2023-03-07T22:19:30.055Z,0.73
2023-03-07T22:23:30.170Z,0.73
2023-03-07T22:27:30.224Z,0.73
2023-03-07T22:31:30.365Z,0.72
2023-03-07T22:35:30.510Z,0.71
2023-03-07T22:39:30.509Z,0.71
2023-03-07T22:43:30.667Z,0.70
2023-03-07T22:47:30.782Z,0.71
2023-03-07T22:51:30.935Z,0.71
2023-03-07T22:55:30.993Z,0.72
2023-03-07T22:59:31.121Z,0.71
2023-03-07T23:03:31.304Z,0.70
2023-03-07T23:07:31.375Z,0.71
2023-03-07T23:11:31.520Z,0.71
2023-03-07T23:15:31.671Z,0.71
2023-03-07T23:19:31.777Z,0.69
2023-03-07T23:23:31.970Z,0.69
2023-03-07T23:27:32.131Z,0.69
2023-03-07T23:31:32.408Z,0.69
2023-03-07T23:35:32.535Z,0.69
2023-03-07T23:39:32.617Z,0.69
2023-03-07T23:43:32.803Z,0.70
2023-03-07T23:47:32.978Z,0.71
2023-03-07T23:51:33.226Z,0.69
2023-03-07T23:55:33.348Z,0.69
2023-03-07T23:59:33.580Z,0.69
